createdAt,value
2018-03-31T00:02:20.086Z,67.23
2018-03-31T00:04:47.967Z,67.22
2018-03-31T00:07:15.893Z,67.05
2018-03-31T00:09:43.762Z,67.44
2018-03-31T00:12:11.639Z,67.36
2018-03-31T00:14:39.567Z,67.02
2018-03-31T00:17:07.438Z,67.36
2018-03-31T00:19:35.325Z,67.21
2018-03-31T00:22:03.234Z,67.04
2018-03-31T00:24:31.107Z,66.55
2018-03-31T00:26:58.979Z,67.11
2018-03-31T00:29:26.881Z,66.90
2018-03-31T00:31:54.754Z,67.28
2018-03-31T00:34:22.617Z,67.25
2018-03-31T00:36:50.525Z,67.52
2018-03-31T00:39:18.391Z,67.89
2018-03-31T00:41:46.258Z,67.87
2018-03-31T00:44:14.181Z,67.97
2018-03-31T00:46:42.048Z,67.51
2018-03-31T00:49:09.910Z,67.80
2018-03-31T00:51:37.822Z,67.72
2018-03-31T00:54:05.696Z,67.60
2018-03-31T00:56:33.557Z,67.79
2018-03-31T00:59:01.476Z,67.65
2018-03-31T01:01:29.341Z,67.67
2018-03-31T01:03:57.210Z,68.29
2018-03-31T01:06:25.134Z,68.00
2018-03-31T01:08:53.005Z,68.00
2018-03-31T01:11:20.874Z,67.80
2018-03-31T01:13:48.777Z,67.89
2018-03-31T01:16:16.658Z,68.12
2018-03-31T01:18:44.529Z,68.17
2018-03-31T01:21:12.434Z,68.53
2018-03-31T01:23:40.307Z,68.63
2018-03-31T01:26:08.174Z,68.48
2018-03-31T01:28:36.097Z,68.74
2018-03-31T01:31:03.964Z,68.85
2018-03-31T01:33:31.833Z,68.76
2018-03-31T01:35:59.749Z,68.68
2018-03-31T01:38:27.615Z,68.63
2018-03-31T01:40:55.482Z,68.79
2018-03-31T01:43:23.395Z,68.93
2018-03-31T01:45:51.269Z,68.57
2018-03-31T01:48:19.143Z,69.10
2018-03-31T01:50:47.053Z,69.47
2018-03-31T01:53:14.917Z,69.23
2018-03-31T01:55:42.785Z,68.92
2018-03-31T01:58:10.691Z,69.67
2018-03-31T02:00:38.565Z,69.36
2018-03-31T02:03:06.433Z,69.70
2018-03-31T02:05:34.358Z,69.90
2018-03-31T02:08:02.230Z,69.42
2018-03-31T02:10:30.093Z,69.28
2018-03-31T02:12:57.997Z,69.54
2018-03-31T02:15:25.865Z,69.19
2018-03-31T02:17:53.734Z,69.42
2018-03-31T02:20:21.646Z,69.39
2018-03-31T02:22:49.509Z,69.59
2018-03-31T02:25:17.398Z,69.74
2018-03-31T02:27:45.318Z,69.96
2018-03-31T02:30:13.321Z,70.05
2018-03-31T02:32:41.186Z,69.89
2018-03-31T02:35:09.109Z,70.36
2018-03-31T02:37:36.978Z,70.43
2018-03-31T02:40:04.845Z,70.65
2018-03-31T02:42:32.760Z,70.99
2018-03-31T02:45:00.636Z,71.04
2018-03-31T02:47:28.514Z,71.32
2018-03-31T02:49:56.438Z,71.79
2018-03-31T02:52:24.305Z,71.81
2018-03-31T02:54:52.172Z,72.42
2018-03-31T02:57:20.095Z,72.80
2018-03-31T02:59:47.960Z,73.68
2018-03-31T03:02:15.835Z,74.21
2018-03-31T03:04:43.771Z,74.88
2018-03-31T03:07:11.656Z,75.43
2018-03-31T03:09:39.528Z,75.77
2018-03-31T03:12:07.437Z,75.91
2018-03-31T03:14:35.306Z,75.38
2018-03-31T03:17:03.173Z,75.43
2018-03-31T03:19:31.109Z,75.53
2018-03-31T03:21:58.987Z,76.23
2018-03-31T03:24:26.854Z,76.63
2018-03-31T03:26:54.774Z,77.42
2018-03-31T03:29:22.643Z,77.78
2018-03-31T03:31:50.522Z,78.60
2018-03-31T03:34:18.429Z,79.26
2018-03-31T03:36:46.302Z,79.62
2018-03-31T03:39:14.170Z,79.59
2018-03-31T03:41:42.175Z,79.81
2018-03-31T03:44:10.050Z,79.77
2018-03-31T03:46:37.913Z,80.16
2018-03-31T03:49:05.822Z,80.26
2018-03-31T03:51:33.694Z,80.57
2018-03-31T03:54:01.567Z,80.12
2018-03-31T03:56:29.506Z,79.96
2018-03-31T03:58:57.374Z,79.95
2018-03-31T04:01:25.233Z,79.86
2018-03-31T04:03:53.138Z,80.19
2018-03-31T04:06:21.003Z,80.26
2018-03-31T04:08:48.894Z,80.43
2018-03-31T04:11:16.816Z,80.21
2018-03-31T04:13:44.689Z,80.21
2018-03-31T04:16:12.558Z,80.59
2018-03-31T04:18:40.470Z,80.47
2018-03-31T04:21:08.333Z,80.66
2018-03-31T04:23:36.214Z,80.79
2018-03-31T04:26:04.137Z,80.77
2018-03-31T04:28:32.023Z,80.92
2018-03-31T04:30:59.906Z,80.70
2018-03-31T04:33:27.821Z,80.96
2018-03-31T04:35:55.686Z,81.15
2018-03-31T04:38:23.557Z,81.29
2018-03-31T04:40:51.463Z,81.13
2018-03-31T04:43:19.330Z,81.52
2018-03-31T04:45:47.201Z,81.56
2018-03-31T04:48:15.131Z,81.50
2018-03-31T04:50:43.022Z,80.94
2018-03-31T04:53:10.922Z,81.16
2018-03-31T04:55:38.846Z,81.15
2018-03-31T04:58:06.727Z,81.74
2018-03-31T05:00:34.622Z,81.62
2018-03-31T05:03:02.558Z,81.68
2018-03-31T05:05:30.455Z,81.63
2018-03-31T05:07:58.317Z,82.09
2018-03-31T05:10:26.425Z,82.06
2018-03-31T05:12:54.321Z,81.94
2018-03-31T05:15:22.201Z,81.73
2018-03-31T05:17:50.165Z,82.08
2018-03-31T05:20:18.010Z,81.86
2018-03-31T05:22:45.894Z,81.72
2018-03-31T05:25:13.807Z,81.76
2018-03-31T05:27:41.677Z,81.70
2018-03-31T05:30:09.550Z,81.21
2018-03-31T05:32:37.472Z,81.54
2018-03-31T05:35:05.348Z,81.38
2018-03-31T05:37:33.238Z,81.47
2018-03-31T05:40:01.171Z,81.62
2018-03-31T05:42:29.066Z,81.79
2018-03-31T05:44:56.935Z,82.21
2018-03-31T05:47:24.864Z,100.00
2018-03-31T05:49:52.745Z,82.16
2018-03-31T05:52:20.621Z,81.73
2018-03-31T05:54:48.530Z,80.91
2018-03-31T05:57:16.439Z,80.99
2018-03-31T05:59:44.306Z,81.14
2018-03-31T06:02:12.218Z,81.34
2018-03-31T06:04:40.082Z,81.40
2018-03-31T06:07:07.953Z,81.71
2018-03-31T06:09:35.869Z,81.44
2018-03-31T06:12:03.778Z,81.51
2018-03-31T06:14:31.666Z,100.00
2018-03-31T06:16:59.605Z,100.00
2018-03-31T06:19:27.510Z,100.00
2018-03-31T06:21:55.405Z,100.00
2018-03-31T06:24:23.339Z,100.00
2018-03-31T06:26:51.235Z,100.00
2018-03-31T06:29:19.126Z,82.12
2018-03-31T06:31:47.074Z,100.00
2018-03-31T06:34:14.966Z,100.00
2018-03-31T06:36:42.899Z,100.00
2018-03-31T06:39:10.833Z,61.08
2018-03-31T06:41:38.729Z,100.00
2018-03-31T06:44:06.626Z,100.00
2018-03-31T06:46:34.558Z,100.00
2018-03-31T06:49:02.462Z,100.00
2018-03-31T06:51:30.350Z,100.00
2018-03-31T06:53:58.306Z,100.00
2018-03-31T06:56:26.228Z,100.00
2018-03-31T06:58:54.230Z,100.00
2018-03-31T07:01:22.175Z,100.00
2018-03-31T07:03:50.069Z,100.00
2018-03-31T07:06:17.969Z,100.00
2018-03-31T07:08:45.917Z,100.00
2018-03-31T07:11:13.814Z,100.00
2018-03-31T07:13:41.706Z,100.00
2018-03-31T07:16:09.642Z,100.00
2018-03-31T07:18:37.533Z,100.00
2018-03-31T07:21:05.430Z,100.00
2018-03-31T07:23:33.371Z,100.00
2018-03-31T07:26:01.300Z,100.00
2018-03-31T07:28:29.206Z,100.00
2018-03-31T07:30:57.149Z,100.00
2018-03-31T07:33:25.042Z,100.00
2018-03-31T07:35:52.937Z,100.00
2018-03-31T07:38:20.879Z,100.00
2018-03-31T07:40:48.771Z,100.00
2018-03-31T07:43:16.664Z,100.00
2018-03-31T07:45:44.598Z,100.00
2018-03-31T07:48:12.500Z,100.00
2018-03-31T07:50:40.393Z,100.00
2018-03-31T07:53:08.324Z,100.00
2018-03-31T07:55:36.222Z,100.00
2018-03-31T07:58:04.113Z,100.00
2018-03-31T08:00:32.069Z,100.00
2018-03-31T08:02:59.969Z,100.00
2018-03-31T08:05:27.862Z,100.00
2018-03-31T08:07:55.835Z,100.00
2018-03-31T08:10:23.726Z,100.00
2018-03-31T08:12:51.623Z,100.00
2018-03-31T08:15:19.752Z,100.00
2018-03-31T08:17:47.654Z,100.00
2018-03-31T08:20:15.550Z,100.00
2018-03-31T08:22:43.497Z,100.00
2018-03-31T08:25:11.393Z,100.00
2018-03-31T08:27:39.285Z,100.00
2018-03-31T08:30:07.382Z,100.00
2018-03-31T08:32:35.273Z,100.00
2018-03-31T08:35:03.175Z,100.00
2018-03-31T08:37:31.110Z,100.00
2018-03-31T08:39:59.013Z,100.00
2018-03-31T08:42:26.910Z,100.00
2018-03-31T08:44:54.844Z,100.00
2018-03-31T08:47:22.766Z,100.00
2018-03-31T08:49:50.658Z,100.00
2018-03-31T08:52:18.594Z,100.00
2018-03-31T08:54:46.494Z,100.00
2018-03-31T08:57:14.394Z,100.00
2018-03-31T08:59:42.407Z,100.00
2018-03-31T09:02:10.302Z,100.00
2018-03-31T09:04:38.198Z,100.00
2018-03-31T09:07:06.160Z,100.00
2018-03-31T09:09:34.049Z,100.00
2018-03-31T09:12:01.943Z,100.00
2018-03-31T09:14:29.901Z,100.00
2018-03-31T09:16:57.800Z,100.00
2018-03-31T09:19:25.695Z,100.00
2018-03-31T09:21:53.663Z,100.00
2018-03-31T09:24:21.562Z,100.00
2018-03-31T09:26:49.458Z,100.00
2018-03-31T09:29:17.390Z,100.00
2018-03-31T09:31:45.281Z,100.00
2018-03-31T09:34:13.179Z,100.00
2018-03-31T09:36:41.117Z,100.00
2018-03-31T09:39:09.023Z,100.00
2018-03-31T09:41:36.918Z,100.00
2018-03-31T09:44:04.863Z,100.00
2018-03-31T09:46:32.758Z,100.00
2018-03-31T09:49:00.653Z,100.00
2018-03-31T09:51:28.597Z,100.00
2018-03-31T09:53:56.495Z,100.00
2018-03-31T09:56:24.389Z,100.00
2018-03-31T09:58:52.326Z,100.00
2018-03-31T10:01:20.218Z,100.00
2018-03-31T10:03:48.118Z,100.00
2018-03-31T10:06:16.138Z,100.00
2018-03-31T10:08:44.030Z,100.00
2018-03-31T10:11:11.926Z,100.00
2018-03-31T10:13:39.861Z,100.00
2018-03-31T10:16:07.765Z,100.00
2018-03-31T10:18:35.668Z,100.00
2018-03-31T10:21:03.611Z,100.00
2018-03-31T10:23:31.509Z,100.00
2018-03-31T10:25:59.401Z,100.00
2018-03-31T10:28:27.343Z,100.00
2018-03-31T10:30:55.246Z,100.00
2018-03-31T10:33:23.138Z,100.00
2018-03-31T10:35:51.082Z,100.00
2018-03-31T10:38:18.975Z,100.00
2018-03-31T10:40:46.870Z,100.00
2018-03-31T10:43:14.817Z,100.00
2018-03-31T10:45:42.819Z,100.00
2018-03-31T10:48:10.713Z,100.00
2018-03-31T10:50:38.647Z,100.00
2018-03-31T10:53:06.542Z,100.00
2018-03-31T10:55:34.442Z,100.00
2018-03-31T10:58:02.385Z,100.00
2018-03-31T11:00:30.278Z,100.00
2018-03-31T11:02:58.175Z,100.00
2018-03-31T11:05:26.117Z,100.00
2018-03-31T11:07:54.019Z,100.00
2018-03-31T11:10:21.923Z,100.00
2018-03-31T11:12:49.863Z,100.00
2018-03-31T11:15:17.789Z,100.00
2018-03-31T11:17:45.686Z,100.00
2018-03-31T11:20:13.642Z,100.00
2018-03-31T11:22:41.539Z,100.00
2018-03-31T11:25:09.447Z,100.00
2018-03-31T11:27:37.381Z,100.00
2018-03-31T11:30:05.306Z,100.00
2018-03-31T11:32:33.201Z,100.00
2018-03-31T11:35:01.164Z,100.00
2018-03-31T11:37:29.058Z,100.00
2018-03-31T11:39:56.973Z,100.00
2018-03-31T11:42:24.942Z,100.00
2018-03-31T11:44:52.841Z,100.00
2018-03-31T11:47:20.734Z,100.00
2018-03-31T11:49:48.721Z,100.00
2018-03-31T11:52:16.625Z,100.00
2018-03-31T11:54:44.519Z,100.00
2018-03-31T11:57:12.457Z,100.00
2018-03-31T11:59:40.350Z,100.00
2018-03-31T12:02:08.249Z,100.00
2018-03-31T12:04:36.285Z,100.00
2018-03-31T12:07:04.190Z,100.00
2018-03-31T12:09:32.079Z,100.00
2018-03-31T12:12:00.033Z,100.00
2018-03-31T12:14:27.924Z,100.00
2018-03-31T12:16:55.822Z,100.00
2018-03-31T12:19:23.768Z,100.00
2018-03-31T12:21:51.661Z,100.00
2018-03-31T12:24:19.558Z,100.00
2018-03-31T12:26:47.509Z,100.00
2018-03-31T12:29:15.407Z,100.00
2018-03-31T12:31:43.294Z,100.00
2018-03-31T12:34:11.254Z,100.00
2018-03-31T12:36:39.203Z,100.00
2018-03-31T12:39:07.073Z,100.00
2018-03-31T12:41:35.026Z,100.00
2018-03-31T12:44:02.918Z,100.00
2018-03-31T12:46:30.818Z,100.00
2018-03-31T12:48:58.768Z,100.00
2018-03-31T12:51:26.657Z,100.00
2018-03-31T12:53:54.585Z,100.00
2018-03-31T12:56:22.524Z,100.00
2018-03-31T12:58:50.428Z,100.00
2018-03-31T13:01:18.334Z,100.00
2018-03-31T13:03:46.710Z,100.00
2018-03-31T13:06:14.610Z,100.00
2018-03-31T13:08:42.512Z,100.00
2018-03-31T13:11:10.454Z,100.00
2018-03-31T13:13:38.373Z,100.00
2018-03-31T13:16:06.265Z,100.00
2018-03-31T13:18:34.213Z,100.00
2018-03-31T13:21:02.111Z,100.00
2018-03-31T13:23:30.012Z,100.00
2018-03-31T13:25:57.954Z,100.00
2018-03-31T13:28:25.854Z,100.00
2018-03-31T13:30:53.747Z,100.00
2018-03-31T13:33:21.754Z,100.00
2018-03-31T13:35:49.659Z,100.00
2018-03-31T13:38:17.554Z,100.00
2018-03-31T13:40:45.519Z,100.00
2018-03-31T13:43:13.410Z,100.00
2018-03-31T13:45:41.302Z,100.00
2018-03-31T13:48:09.254Z,100.00
2018-03-31T13:50:37.158Z,100.00
2018-03-31T13:53:05.046Z,100.00
2018-03-31T13:55:32.973Z,100.00
2018-03-31T13:58:00.863Z,100.00
2018-03-31T14:00:28.751Z,100.00
2018-03-31T14:02:56.701Z,100.00
2018-03-31T14:05:24.590Z,100.00
2018-03-31T14:07:52.478Z,100.00
2018-03-31T14:10:20.409Z,100.00
2018-03-31T14:12:48.314Z,100.00
2018-03-31T14:15:16.202Z,100.00
2018-03-31T14:17:44.146Z,100.00
2018-03-31T14:20:12.050Z,100.00
2018-03-31T14:22:39.942Z,100.00
2018-03-31T14:25:07.877Z,100.00
2018-03-31T14:27:35.773Z,100.00
2018-03-31T14:30:03.667Z,100.00
2018-03-31T14:32:31.609Z,100.00
2018-03-31T14:34:59.502Z,100.00
2018-03-31T14:37:27.456Z,100.00
2018-03-31T14:39:55.377Z,100.00
2018-03-31T14:42:23.292Z,100.00
2018-03-31T14:44:51.186Z,100.00
2018-03-31T14:47:19.122Z,100.00
2018-03-31T14:49:47.209Z,100.00
2018-03-31T14:52:15.113Z,100.00
2018-03-31T14:54:43.066Z,100.00
2018-03-31T14:57:10.982Z,100.00
2018-03-31T14:59:38.885Z,100.00
2018-03-31T15:02:06.856Z,100.00
2018-03-31T15:04:34.769Z,100.00
2018-03-31T15:07:02.674Z,100.00
2018-03-31T15:09:30.602Z,100.00
2018-03-31T15:11:58.498Z,100.00
2018-03-31T15:14:26.395Z,100.00
2018-03-31T15:16:54.338Z,100.00
2018-03-31T15:19:22.230Z,100.00
2018-03-31T15:21:50.126Z,100.00
2018-03-31T15:24:18.119Z,100.00
2018-03-31T15:26:46.018Z,100.00
2018-03-31T15:29:13.969Z,100.00
2018-03-31T15:31:41.937Z,100.00
2018-03-31T15:34:09.830Z,100.00
2018-03-31T15:36:37.734Z,100.00
2018-03-31T15:39:05.670Z,100.00
2018-03-31T15:41:33.569Z,100.00
2018-03-31T15:44:01.461Z,100.00
2018-03-31T15:46:29.433Z,100.00
2018-03-31T15:48:57.322Z,100.00
2018-03-31T15:51:25.222Z,100.00
2018-03-31T15:53:53.155Z,100.00
2018-03-31T15:56:21.066Z,100.00
2018-03-31T15:58:48.978Z,100.00
2018-03-31T16:01:16.933Z,100.00
2018-03-31T16:03:44.825Z,100.00
2018-03-31T16:06:12.729Z,100.00
2018-03-31T16:08:40.663Z,100.00
2018-03-31T16:11:08.558Z,100.00
2018-03-31T16:13:36.452Z,100.00
2018-03-31T16:16:04.390Z,100.00
2018-03-31T16:18:32.294Z,100.00
2018-03-31T16:21:00.189Z,100.00
2018-03-31T16:23:28.157Z,100.00
2018-03-31T16:25:56.054Z,100.00
2018-03-31T16:28:23.966Z,100.00
2018-03-31T16:30:51.910Z,100.00
2018-03-31T16:33:19.806Z,100.00
2018-03-31T16:35:47.738Z,100.00
2018-03-31T16:38:15.684Z,100.00
2018-03-31T16:40:43.573Z,100.00
2018-03-31T16:43:11.485Z,100.00
2018-03-31T16:45:39.425Z,100.00
2018-03-31T16:48:07.350Z,100.00
2018-03-31T16:50:35.245Z,100.00
2018-03-31T16:53:03.177Z,100.00
2018-03-31T16:55:31.074Z,100.00
2018-03-31T16:57:58.966Z,100.00
2018-03-31T17:00:26.901Z,100.00
2018-03-31T17:02:54.847Z,100.00
2018-03-31T17:05:22.717Z,100.00
2018-03-31T17:07:50.657Z,100.00
2018-03-31T17:10:18.550Z,100.00
2018-03-31T17:12:46.443Z,100.00
2018-03-31T17:15:14.534Z,100.00
2018-03-31T17:17:42.442Z,100.00
2018-03-31T17:20:10.338Z,100.00
2018-03-31T17:22:38.289Z,100.00
2018-03-31T17:25:06.186Z,100.00
2018-03-31T17:27:34.077Z,100.00
2018-03-31T17:30:02.019Z,100.00
2018-03-31T17:32:29.917Z,100.00
2018-03-31T17:34:57.815Z,100.00
2018-03-31T17:37:25.772Z,100.00
2018-03-31T17:39:53.664Z,100.00
2018-03-31T17:42:21.550Z,100.00
2018-03-31T17:44:49.585Z,100.00
2018-03-31T17:47:17.488Z,100.00
2018-03-31T17:49:45.418Z,100.00
2018-03-31T17:52:13.514Z,100.00
2018-03-31T17:54:41.410Z,100.00
2018-03-31T17:57:09.306Z,100.00
2018-03-31T17:59:37.257Z,100.00
2018-03-31T18:02:05.187Z,100.00
2018-03-31T18:04:33.082Z,100.00
2018-03-31T18:07:01.050Z,100.00
2018-03-31T18:09:28.943Z,100.00
2018-03-31T18:11:56.841Z,100.00
2018-03-31T18:14:24.901Z,100.00
2018-03-31T18:16:52.794Z,100.00
2018-03-31T18:19:20.686Z,100.00
2018-03-31T18:21:48.693Z,100.00
2018-03-31T18:24:16.558Z,100.00
2018-03-31T18:26:44.454Z,100.00
2018-03-31T18:29:12.407Z,100.00
2018-03-31T18:31:40.308Z,100.00
2018-03-31T18:34:08.207Z,100.00
2018-03-31T18:36:36.449Z,100.00
2018-03-31T18:39:04.393Z,100.00
2018-03-31T18:41:32.293Z,100.00
2018-03-31T18:44:00.230Z,100.00
2018-03-31T18:46:28.141Z,100.00
2018-03-31T18:48:56.038Z,100.00
2018-03-31T18:51:23.977Z,100.00
2018-03-31T18:53:51.897Z,100.00
2018-03-31T18:56:19.807Z,100.00
2018-03-31T18:58:47.750Z,100.00
2018-03-31T19:01:15.647Z,100.00
2018-03-31T19:03:43.541Z,100.00
2018-03-31T19:06:11.482Z,100.00
2018-03-31T19:08:39.369Z,100.00
2018-03-31T19:11:07.266Z,100.00
2018-03-31T19:13:35.217Z,100.00
2018-03-31T19:16:03.113Z,100.00
2018-03-31T19:18:31.014Z,100.00
2018-03-31T19:20:58.963Z,100.00
2018-03-31T19:23:26.855Z,100.00
2018-03-31T19:25:54.753Z,100.00
2018-03-31T19:28:22.685Z,100.00
2018-03-31T19:30:50.620Z,100.00
2018-03-31T19:33:18.518Z,100.00
2018-03-31T19:35:52.040Z,100.00
2018-03-31T19:38:19.933Z,100.00
2018-03-31T19:40:47.838Z,100.00
2018-03-31T19:43:15.781Z,100.00
2018-03-31T19:45:43.679Z,100.00
2018-03-31T19:48:11.599Z,100.00
2018-03-31T19:50:39.541Z,100.00
2018-03-31T19:53:07.444Z,100.00
2018-03-31T19:55:35.337Z,100.00
2018-03-31T19:58:03.290Z,100.00
2018-03-31T20:00:31.193Z,100.00
2018-03-31T20:02:59.084Z,100.00
2018-03-31T20:05:27.037Z,100.00
2018-03-31T20:07:54.928Z,100.00
2018-03-31T20:10:22.856Z,100.00
2018-03-31T20:12:50.786Z,100.00
2018-03-31T20:15:18.681Z,100.00
2018-03-31T20:17:46.581Z,100.00
2018-03-31T20:20:14.530Z,100.00
2018-03-31T20:22:42.418Z,100.00
2018-03-31T20:25:10.309Z,100.00
2018-03-31T20:27:38.254Z,100.00
2018-03-31T20:30:06.145Z,100.00
2018-03-31T20:32:34.034Z,100.00
2018-03-31T20:35:01.994Z,100.00
2018-03-31T20:37:29.886Z,100.00
2018-03-31T20:39:57.786Z,100.00
2018-03-31T20:42:25.736Z,100.00
2018-03-31T20:44:53.630Z,100.00
2018-03-31T20:47:21.520Z,100.00
2018-03-31T20:49:49.466Z,100.00
2018-03-31T20:52:17.363Z,100.00
2018-03-31T20:54:45.259Z,100.00
2018-03-31T20:57:13.190Z,100.00
2018-03-31T20:59:41.096Z,100.00
2018-03-31T21:02:08.985Z,100.00
2018-03-31T21:04:36.925Z,100.00
2018-03-31T21:07:04.819Z,100.00
2018-03-31T21:09:32.707Z,100.00
2018-03-31T21:12:00.648Z,100.00
2018-03-31T21:14:28.537Z,100.00
2018-03-31T21:16:56.425Z,100.00
2018-03-31T21:19:24.382Z,100.00
2018-03-31T21:21:52.281Z,100.00
2018-03-31T21:24:20.177Z,100.00
2018-03-31T21:26:48.125Z,100.00
2018-03-31T21:29:16.038Z,100.00
2018-03-31T21:31:43.935Z,100.00
2018-03-31T21:34:11.885Z,100.00
2018-03-31T21:36:39.787Z,100.00
2018-03-31T21:39:07.826Z,100.00
2018-03-31T21:41:35.758Z,100.00
2018-03-31T21:44:03.645Z,100.00
2018-03-31T21:46:31.542Z,100.00
2018-03-31T21:48:59.485Z,100.00
2018-03-31T21:51:27.402Z,100.00
2018-03-31T21:53:55.306Z,100.00
2018-03-31T21:56:23.337Z,100.00
2018-03-31T21:58:51.253Z,100.00
2018-03-31T22:01:19.142Z,100.00
2018-03-31T22:03:47.234Z,100.00
2018-03-31T22:06:15.125Z,100.00
2018-03-31T22:08:43.014Z,100.00
2018-03-31T22:11:10.954Z,100.00
2018-03-31T22:13:44.269Z,100.00
2018-03-31T22:16:12.227Z,100.00
2018-03-31T22:18:40.121Z,100.00
2018-03-31T22:21:08.015Z,100.00
2018-03-31T22:23:35.946Z,100.00
2018-03-31T22:26:03.846Z,100.00
2018-03-31T22:28:31.746Z,100.00
2018-03-31T22:30:59.683Z,100.00
2018-03-31T22:33:27.582Z,100.00
2018-03-31T22:35:55.475Z,100.00
2018-03-31T22:38:23.409Z,100.00
2018-03-31T22:40:51.298Z,100.00
2018-03-31T22:43:19.194Z,100.00
2018-03-31T22:45:47.138Z,100.00
2018-03-31T22:48:15.030Z,100.00
2018-03-31T22:50:42.920Z,100.00
2018-03-31T22:53:10.854Z,100.00
2018-03-31T22:55:38.742Z,100.00
2018-03-31T22:58:06.637Z,100.00
2018-03-31T23:00:34.574Z,100.00
2018-03-31T23:03:02.471Z,100.00
2018-03-31T23:05:30.438Z,100.00
2018-03-31T23:07:58.346Z,100.00
2018-03-31T23:10:26.246Z,100.00
2018-03-31T23:12:54.145Z,100.00
2018-03-31T23:15:22.082Z,100.00
2018-03-31T23:17:49.986Z,100.00
2018-03-31T23:20:17.903Z,100.00
2018-03-31T23:22:45.841Z,100.00
2018-03-31T23:25:13.730Z,100.00
2018-03-31T23:27:41.630Z,100.00
2018-03-31T23:30:09.562Z,100.00
2018-03-31T23:32:37.459Z,100.00
2018-03-31T23:35:05.356Z,100.00
2018-03-31T23:37:33.303Z,100.00
2018-03-31T23:40:02.086Z,100.00
2018-03-31T23:42:29.977Z,100.00
2018-03-31T23:44:57.926Z,100.00
2018-03-31T23:47:25.837Z,100.00
2018-03-31T23:49:53.726Z,100.00
2018-03-31T23:52:21.658Z,100.00
2018-03-31T23:54:49.553Z,100.00
2018-03-31T23:57:17.452Z,100.00
2018-03-31T23:59:45.414Z,100.00
